Cannon Ball, North Dakota
Current Conditions -  °F | °C
As of 2:35 PM on Friday 24 Oct 2014 (Local Time) from K7L2 Reporting Station
Broken Clouds Broken Clouds  
Wind Chill: 70°   Ceiling: 12000
Heat Index: 70°   Visibility: 10mi
Dew Point: 39°   Wind: 14mph
Humidity: 33%   Direction: 310°NW
Pressure: 29.9"   Gusts: NA
Location:  46.4°N, 100.6°W
Report Text: K7L2 242035Z AUTO 31012KT 10SM BKN120 21/04 A2990 RMK AO2 PWINO PNO
Loading
Personal Weather Stations






























Interactive Weather Map New forecast layout! Learn more

10-Day Weather Forecast

Advertisements
Track Severe Weather on mobile